sensor_id;sensor_type;location;lat;lon;timestamp;P1;durP1;ratioP1;P2;durP2;ratioP2
18929;SDS011;43305;52.186;5.598;2023-02-28T00:00:00;7.22;;;2.65;;
18929;SDS011;43305;52.186;5.598;2023-02-28T00:02:33;7.03;;;2.80;;
18929;SDS011;43305;52.186;5.598;2023-02-28T00:05:00;5.63;;;2.72;;
18929;SDS011;43305;52.186;5.598;2023-02-28T00:07:28;7.47;;;2.65;;
18929;SDS011;43305;52.186;5.598;2023-02-28T00:09:56;7.55;;;2.60;;
18929;SDS011;43305;52.186;5.598;2023-02-28T00:12:23;5.38;;;2.40;;
18929;SDS011;43305;52.186;5.598;2023-02-28T00:14:51;5.38;;;2.25;;
18929;SDS011;43305;52.186;5.598;2023-02-28T00:17:18;7.07;;;2.42;;
18929;SDS011;43305;52.186;5.598;2023-02-28T00:19:46;6.65;;;2.20;;
18929;SDS011;43305;52.186;5.598;2023-02-28T00:22:14;6.95;;;2.10;;
18929;SDS011;43305;52.186;5.598;2023-02-28T00:24:41;5.55;;;2.40;;
18929;SDS011;43305;52.186;5.598;2023-02-28T00:27:09;6.38;;;2.17;;
18929;SDS011;43305;52.186;5.598;2023-02-28T00:29:37;7.28;;;2.17;;
18929;SDS011;43305;52.186;5.598;2023-02-28T00:32:04;5.82;;;2.33;;
18929;SDS011;43305;52.186;5.598;2023-02-28T00:34:32;6.55;;;2.15;;
18929;SDS011;43305;52.186;5.598;2023-02-28T00:37:03;8.82;;;2.35;;
18929;SDS011;43305;52.186;5.598;2023-02-28T00:39:31;6.00;;;2.08;;
18929;SDS011;43305;52.186;5.598;2023-02-28T00:41:59;4.00;;;1.90;;
18929;SDS011;43305;52.186;5.598;2023-02-28T00:44:27;5.55;;;1.98;;
18929;SDS011;43305;52.186;5.598;2023-02-28T00:46:54;4.07;;;2.00;;
18929;SDS011;43305;52.186;5.598;2023-02-28T00:49:21;4.72;;;2.00;;
18929;SDS011;43305;52.186;5.598;2023-02-28T00:51:48;4.45;;;2.13;;
18929;SDS011;43305;52.186;5.598;2023-02-28T00:54:15;6.07;;;2.53;;
18929;SDS011;43305;52.186;5.598;2023-02-28T00:56:43;10.65;;;2.42;;
18929;SDS011;43305;52.186;5.598;2023-02-28T00:59:11;5.35;;;2.13;;
18929;SDS011;43305;52.186;5.598;2023-02-28T01:01:39;3.60;;;2.22;;
18929;SDS011;43305;52.186;5.598;2023-02-28T01:04:07;5.45;;;2.33;;
18929;SDS011;43305;52.186;5.598;2023-02-28T01:06:34;7.38;;;2.70;;
18929;SDS011;43305;52.186;5.598;2023-02-28T01:09:02;6.88;;;2.30;;
18929;SDS011;43305;52.186;5.598;2023-02-28T01:11:29;6.50;;;2.13;;
18929;SDS011;43305;52.186;5.598;2023-02-28T01:13:57;6.07;;;2.38;;
18929;SDS011;43305;52.186;5.598;2023-02-28T01:16:24;4.82;;;2.05;;
18929;SDS011;43305;52.186;5.598;2023-02-28T01:18:53;6.63;;;2.28;;
18929;SDS011;43305;52.186;5.598;2023-02-28T01:21:21;5.28;;;2.13;;
18929;SDS011;43305;52.186;5.598;2023-02-28T01:23:48;6.25;;;2.17;;
18929;SDS011;43305;52.186;5.598;2023-02-28T01:26:17;6.28;;;2.00;;
18929;SDS011;43305;52.186;5.598;2023-02-28T01:28:46;5.50;;;2.22;;
18929;SDS011;43305;52.186;5.598;2023-02-28T01:31:14;6.53;;;2.35;;
18929;SDS011;43305;52.186;5.598;2023-02-28T01:33:41;3.70;;;2.40;;
18929;SDS011;43305;52.186;5.598;2023-02-28T01:36:10;5.10;;;2.10;;
18929;SDS011;43305;52.186;5.598;2023-02-28T01:38:39;4.28;;;2.17;;
18929;SDS011;43305;52.186;5.598;2023-02-28T01:41:06;5.38;;;2.20;;
18929;SDS011;43305;52.186;5.598;2023-02-28T01:46:20;8.25;;;2.60;;
18929;SDS011;43305;52.186;5.598;2023-02-28T01:48:49;6.00;;;2.45;;
18929;SDS011;43305;52.186;5.598;2023-02-28T01:51:23;5.18;;;2.33;;
18929;SDS011;43305;52.186;5.598;2023-02-28T01:53:56;6.53;;;2.40;;
18929;SDS011;43305;52.186;5.598;2023-02-28T01:56:26;6.63;;;2.90;;
18929;SDS011;43305;52.186;5.598;2023-02-28T01:58:56;6.55;;;2.05;;
18929;SDS011;43305;52.186;5.598;2023-02-28T02:01:24;5.97;;;2.40;;
18929;SDS011;43305;52.186;5.598;2023-02-28T02:03:53;5.82;;;2.40;;
18929;SDS011;43305;52.186;5.598;2023-02-28T02:06:23;4.50;;;2.33;;
18929;SDS011;43305;52.186;5.598;2023-02-28T02:08:53;7.45;;;2.55;;
18929;SDS011;43305;52.186;5.598;2023-02-28T02:11:20;5.03;;;2.30;;
18929;SDS011;43305;52.186;5.598;2023-02-28T02:13:55;6.13;;;2.38;;
18929;SDS011;43305;52.186;5.598;2023-02-28T02:16:48;6.55;;;2.38;;
18929;SDS011;43305;52.186;5.598;2023-02-28T02:19:30;4.88;;;2.17;;
18929;SDS011;43305;52.186;5.598;2023-02-28T02:22:29;5.60;;;2.38;;
18929;SDS011;43305;52.186;5.598;2023-02-28T02:25:18;5.20;;;2.50;;
18929;SDS011;43305;52.186;5.598;2023-02-28T02:30:59;6.57;;;2.50;;
18929;SDS011;43305;52.186;5.598;2023-02-28T02:37:15;7.50;;;2.40;;
18929;SDS011;43305;52.186;5.598;2023-02-28T02:39:54;8.10;;;2.65;;
18929;SDS011;43305;52.186;5.598;2023-02-28T02:42:29;4.82;;;2.38;;
18929;SDS011;43305;52.186;5.598;2023-02-28T02:45:03;4.38;;;2.33;;
18929;SDS011;43305;52.186;5.598;2023-02-28T02:47:35;4.35;;;2.50;;
18929;SDS011;43305;52.186;5.598;2023-02-28T02:50:07;8.38;;;2.55;;
18929;SDS011;43305;52.186;5.598;2023-02-28T02:52:40;7.00;;;2.33;;
18929;SDS011;43305;52.186;5.598;2023-02-28T02:55:11;5.07;;;2.50;;
18929;SDS011;43305;52.186;5.598;2023-02-28T02:57:42;4.60;;;2.67;;
18929;SDS011;43305;52.186;5.598;2023-02-28T03:00:13;4.65;;;2.13;;
18929;SDS011;43305;52.186;5.598;2023-02-28T03:02:43;6.72;;;2.50;;
18929;SDS011;43305;52.186;5.598;2023-02-28T03:05:14;6.85;;;2.40;;
18929;SDS011;43305;52.186;5.598;2023-02-28T03:07:45;6.10;;;2.97;;
18929;SDS011;43305;52.186;5.598;2023-02-28T03:10:26;6.43;;;2.78;;
18929;SDS011;43305;52.186;5.598;2023-02-28T03:13:12;10.10;;;2.95;;
18929;SDS011;43305;52.186;5.598;2023-02-28T03:16:03;5.93;;;2.67;;
18929;SDS011;43305;52.186;5.598;2023-02-28T03:18:52;4.97;;;2.28;;
18929;SDS011;43305;52.186;5.598;2023-02-28T03:21:26;5.68;;;2.30;;
18929;SDS011;43305;52.186;5.598;2023-02-28T03:23:59;6.63;;;2.78;;
18929;SDS011;43305;52.186;5.598;2023-02-28T03:26:30;6.60;;;2.80;;
18929;SDS011;43305;52.186;5.598;2023-02-28T03:29:01;7.68;;;2.80;;
18929;SDS011;43305;52.186;5.598;2023-02-28T03:31:32;7.07;;;2.63;;
18929;SDS011;43305;52.186;5.598;2023-02-28T03:34:04;10.00;;;4.13;;
18929;SDS011;43305;52.186;5.598;2023-02-28T03:36:38;11.80;;;4.15;;
18929;SDS011;43305;52.186;5.598;2023-02-28T03:39:11;7.57;;;3.30;;
18929;SDS011;43305;52.186;5.598;2023-02-28T03:41:42;7.57;;;3.03;;
18929;SDS011;43305;52.186;5.598;2023-02-28T03:44:13;11.82;;;3.45;;
18929;SDS011;43305;52.186;5.598;2023-02-28T03:46:45;8.52;;;2.67;;
18929;SDS011;43305;52.186;5.598;2023-02-28T03:49:16;7.35;;;3.00;;
18929;SDS011;43305;52.186;5.598;2023-02-28T03:51:47;7.88;;;3.22;;
18929;SDS011;43305;52.186;5.598;2023-02-28T03:54:18;6.38;;;3.33;;
18929;SDS011;43305;52.186;5.598;2023-02-28T03:56:48;8.85;;;4.22;;
18929;SDS011;43305;52.186;5.598;2023-02-28T03:59:22;12.43;;;4.38;;
18929;SDS011;43305;52.186;5.598;2023-02-28T04:01:54;6.25;;;3.17;;
18929;SDS011;43305;52.186;5.598;2023-02-28T04:04:23;9.73;;;3.75;;
18929;SDS011;43305;52.186;5.598;2023-02-28T04:06:52;6.82;;;3.50;;
18929;SDS011;43305;52.186;5.598;2023-02-28T04:09:27;9.90;;;3.35;;
18929;SDS011;43305;52.186;5.598;2023-02-28T04:11:53;7.72;;;3.03;;
18929;SDS011;43305;52.186;5.598;2023-02-28T04:14:21;9.15;;;3.05;;
18929;SDS011;43305;52.186;5.598;2023-02-28T04:16:48;6.70;;;3.17;;
18929;SDS011;43305;52.186;5.598;2023-02-28T04:19:17;7.82;;;3.13;;
18929;SDS011;43305;52.186;5.598;2023-02-28T04:21:45;7.90;;;2.97;;
18929;SDS011;43305;52.186;5.598;2023-02-28T04:24:15;7.55;;;2.90;;
18929;SDS011;43305;52.186;5.598;2023-02-28T04:26:44;7.18;;;2.95;;
18929;SDS011;43305;52.186;5.598;2023-02-28T04:29:15;5.07;;;2.83;;
18929;SDS011;43305;52.186;5.598;2023-02-28T04:31:45;5.38;;;2.10;;
18929;SDS011;43305;52.186;5.598;2023-02-28T04:34:12;4.97;;;2.45;;
18929;SDS011;43305;52.186;5.598;2023-02-28T04:36:39;5.40;;;2.42;;
18929;SDS011;43305;52.186;5.598;2023-02-28T04:39:06;7.05;;;2.40;;
18929;SDS011;43305;52.186;5.598;2023-02-28T04:41:36;6.10;;;2.20;;
18929;SDS011;43305;52.186;5.598;2023-02-28T04:44:03;8.80;;;2.05;;
18929;SDS011;43305;52.186;5.598;2023-02-28T04:46:30;4.25;;;2.00;;
18929;SDS011;43305;52.186;5.598;2023-02-28T04:48:56;3.58;;;1.95;;
18929;SDS011;43305;52.186;5.598;2023-02-28T04:51:24;3.88;;;1.95;;
18929;SDS011;43305;52.186;5.598;2023-02-28T04:53:51;6.53;;;1.73;;
18929;SDS011;43305;52.186;5.598;2023-02-28T04:56:19;3.63;;;1.80;;
18929;SDS011;43305;52.186;5.598;2023-02-28T04:58:47;3.83;;;1.88;;
18929;SDS011;43305;52.186;5.598;2023-02-28T05:01:16;5.38;;;2.35;;
18929;SDS011;43305;52.186;5.598;2023-02-28T05:03:46;4.15;;;1.95;;
18929;SDS011;43305;52.186;5.598;2023-02-28T05:06:15;5.35;;;2.05;;
18929;SDS011;43305;52.186;5.598;2023-02-28T05:08:42;6.20;;;2.15;;
18929;SDS011;43305;52.186;5.598;2023-02-28T05:11:13;7.38;;;2.15;;
18929;SDS011;43305;52.186;5.598;2023-02-28T05:13:41;4.82;;;1.73;;
18929;SDS011;43305;52.186;5.598;2023-02-28T05:16:10;3.30;;;1.73;;
18929;SDS011;43305;52.186;5.598;2023-02-28T05:18:37;3.95;;;1.70;;
18929;SDS011;43305;52.186;5.598;2023-02-28T05:21:04;4.78;;;2.10;;
18929;SDS011;43305;52.186;5.598;2023-02-28T05:23:31;4.45;;;2.10;;
18929;SDS011;43305;52.186;5.598;2023-02-28T05:25:58;3.17;;;1.80;;
18929;SDS011;43305;52.186;5.598;2023-02-28T05:28:25;3.20;;;1.95;;
18929;SDS011;43305;52.186;5.598;2023-02-28T05:30:52;5.50;;;2.28;;
18929;SDS011;43305;52.186;5.598;2023-02-28T05:33:20;3.00;;;2.00;;
18929;SDS011;43305;52.186;5.598;2023-02-28T05:35:47;3.03;;;1.90;;
18929;SDS011;43305;52.186;5.598;2023-02-28T05:38:13;3.20;;;2.10;;
18929;SDS011;43305;52.186;5.598;2023-02-28T05:40:40;5.72;;;2.33;;
18929;SDS011;43305;52.186;5.598;2023-02-28T05:43:09;4.43;;;2.25;;
18929;SDS011;43305;52.186;5.598;2023-02-28T05:45:37;3.50;;;2.03;;
18929;SDS011;43305;52.186;5.598;2023-02-28T05:48:04;3.60;;;2.20;;
18929;SDS011;43305;52.186;5.598;2023-02-28T05:50:33;4.00;;;2.17;;
18929;SDS011;43305;52.186;5.598;2023-02-28T05:53:00;3.42;;;2.20;;
18929;SDS011;43305;52.186;5.598;2023-02-28T05:55:26;5.57;;;2.60;;
18929;SDS011;43305;52.186;5.598;2023-02-28T05:57:53;6.35;;;2.55;;
18929;SDS011;43305;52.186;5.598;2023-02-28T06:00:21;4.10;;;2.25;;
18929;SDS011;43305;52.186;5.598;2023-02-28T06:02:48;5.07;;;2.70;;
18929;SDS011;43305;52.186;5.598;2023-02-28T06:05:16;7.60;;;3.80;;
18929;SDS011;43305;52.186;5.598;2023-02-28T06:07:45;6.88;;;3.33;;
18929;SDS011;43305;52.186;5.598;2023-02-28T06:10:12;7.63;;;2.90;;
18929;SDS011;43305;52.186;5.598;2023-02-28T06:12:40;9.18;;;4.38;;
18929;SDS011;43305;52.186;5.598;2023-02-28T06:15:09;6.45;;;3.63;;
18929;SDS011;43305;52.186;5.598;2023-02-28T06:17:38;6.20;;;3.47;;
18929;SDS011;43305;52.186;5.598;2023-02-28T06:20:06;14.95;;;4.10;;
18929;SDS011;43305;52.186;5.598;2023-02-28T06:22:34;9.13;;;3.90;;
18929;SDS011;43305;52.186;5.598;2023-02-28T06:25:03;6.85;;;3.40;;
18929;SDS011;43305;52.186;5.598;2023-02-28T06:27:32;7.60;;;3.17;;
18929;SDS011;43305;52.186;5.598;2023-02-28T06:29:59;11.68;;;4.25;;
18929;SDS011;43305;52.186;5.598;2023-02-28T06:32:26;5.57;;;3.47;;
18929;SDS011;43305;52.186;5.598;2023-02-28T06:34:53;8.68;;;4.68;;
18929;SDS011;43305;52.186;5.598;2023-02-28T06:37:22;11.18;;;4.50;;
18929;SDS011;43305;52.186;5.598;2023-02-28T06:39:51;17.45;;;3.92;;
18929;SDS011;43305;52.186;5.598;2023-02-28T06:42:19;15.85;;;3.55;;
18929;SDS011;43305;52.186;5.598;2023-02-28T06:44:47;6.38;;;3.15;;
18929;SDS011;43305;52.186;5.598;2023-02-28T06:47:13;7.45;;;3.40;;
18929;SDS011;43305;52.186;5.598;2023-02-28T06:49:40;7.55;;;3.22;;
18929;SDS011;43305;52.186;5.598;2023-02-28T06:52:07;6.35;;;3.25;;
18929;SDS011;43305;52.186;5.598;2023-02-28T06:54:35;4.13;;;3.00;;
18929;SDS011;43305;52.186;5.598;2023-02-28T06:57:02;7.03;;;3.00;;
18929;SDS011;43305;52.186;5.598;2023-02-28T06:59:31;5.15;;;2.88;;
18929;SDS011;43305;52.186;5.598;2023-02-28T07:01:57;4.22;;;2.75;;
18929;SDS011;43305;52.186;5.598;2023-02-28T07:04:25;4.40;;;2.72;;
18929;SDS011;43305;52.186;5.598;2023-02-28T07:06:52;6.00;;;2.83;;
18929;SDS011;43305;52.186;5.598;2023-02-28T07:09:21;5.75;;;2.88;;
18929;SDS011;43305;52.186;5.598;2023-02-28T07:11:48;8.55;;;3.00;;
18929;SDS011;43305;52.186;5.598;2023-02-28T07:14:15;9.00;;;3.00;;
18929;SDS011;43305;52.186;5.598;2023-02-28T07:16:43;11.48;;;3.80;;
18929;SDS011;43305;52.186;5.598;2023-02-28T07:19:10;10.88;;;4.10;;
18929;SDS011;43305;52.186;5.598;2023-02-28T07:21:37;8.05;;;3.65;;
18929;SDS011;43305;52.186;5.598;2023-02-28T07:24:04;11.40;;;3.45;;
18929;SDS011;43305;52.186;5.598;2023-02-28T07:26:32;10.57;;;4.13;;
18929;SDS011;43305;52.186;5.598;2023-02-28T07:29:00;10.18;;;3.75;;
18929;SDS011;43305;52.186;5.598;2023-02-28T07:31:27;12.45;;;4.00;;
18929;SDS011;43305;52.186;5.598;2023-02-28T07:33:55;6.53;;;3.53;;
18929;SDS011;43305;52.186;5.598;2023-02-28T07:36:22;9.95;;;3.72;;
18929;SDS011;43305;52.186;5.598;2023-02-28T07:38:49;9.05;;;3.92;;
18929;SDS011;43305;52.186;5.598;2023-02-28T07:41:16;10.25;;;3.90;;
18929;SDS011;43305;52.186;5.598;2023-02-28T07:43:44;12.52;;;4.70;;
18929;SDS011;43305;52.186;5.598;2023-02-28T07:46:14;9.38;;;4.38;;
18929;SDS011;43305;52.186;5.598;2023-02-28T07:48:43;8.18;;;4.30;;
18929;SDS011;43305;52.186;5.598;2023-02-28T07:51:11;12.07;;;4.32;;
18929;SDS011;43305;52.186;5.598;2023-02-28T07:53:38;10.18;;;4.50;;
18929;SDS011;43305;52.186;5.598;2023-02-28T07:56:06;6.85;;;3.97;;
18929;SDS011;43305;52.186;5.598;2023-02-28T07:58:33;8.07;;;4.18;;
18929;SDS011;43305;52.186;5.598;2023-02-28T08:01:04;14.95;;;4.13;;
18929;SDS011;43305;52.186;5.598;2023-02-28T08:03:32;13.95;;;4.13;;
18929;SDS011;43305;52.186;5.598;2023-02-28T08:05:59;7.00;;;4.30;;
18929;SDS011;43305;52.186;5.598;2023-02-28T08:08:28;7.25;;;3.78;;
18929;SDS011;43305;52.186;5.598;2023-02-28T08:10:57;7.55;;;3.05;;
18929;SDS011;43305;52.186;5.598;2023-02-28T08:13:24;6.82;;;3.42;;
18929;SDS011;43305;52.186;5.598;2023-02-28T08:15:52;7.60;;;3.25;;
18929;SDS011;43305;52.186;5.598;2023-02-28T08:18:19;6.13;;;3.05;;
18929;SDS011;43305;52.186;5.598;2023-02-28T08:20:45;7.28;;;3.30;;
18929;SDS011;43305;52.186;5.598;2023-02-28T08:23:13;8.30;;;3.42;;
18929;SDS011;43305;52.186;5.598;2023-02-28T08:25:44;8.90;;;3.03;;
18929;SDS011;43305;52.186;5.598;2023-02-28T08:28:11;5.30;;;2.80;;
18929;SDS011;43305;52.186;5.598;2023-02-28T08:30:38;5.60;;;2.45;;
18929;SDS011;43305;52.186;5.598;2023-02-28T08:33:06;9.07;;;2.85;;
18929;SDS011;43305;52.186;5.598;2023-02-28T08:35:34;6.05;;;2.55;;
18929;SDS011;43305;52.186;5.598;2023-02-28T08:38:02;4.70;;;2.40;;
18929;SDS011;43305;52.186;5.598;2023-02-28T08:40:29;5.28;;;2.60;;
18929;SDS011;43305;52.186;5.598;2023-02-28T08:42:57;3.55;;;2.38;;
18929;SDS011;43305;52.186;5.598;2023-02-28T08:45:24;6.93;;;2.67;;
18929;SDS011;43305;52.186;5.598;2023-02-28T08:47:51;4.97;;;2.63;;
18929;SDS011;43305;52.186;5.598;2023-02-28T08:50:20;5.63;;;2.25;;
18929;SDS011;43305;52.186;5.598;2023-02-28T08:52:47;5.38;;;2.10;;
18929;SDS011;43305;52.186;5.598;2023-02-28T08:55:14;6.55;;;2.08;;
18929;SDS011;43305;52.186;5.598;2023-02-28T08:57:41;4.22;;;2.10;;
18929;SDS011;43305;52.186;5.598;2023-02-28T09:00:10;3.05;;;1.77;;
18929;SDS011;43305;52.186;5.598;2023-02-28T09:02:38;3.72;;;1.70;;
18929;SDS011;43305;52.186;5.598;2023-02-28T09:05:06;5.57;;;1.70;;
18929;SDS011;43305;52.186;5.598;2023-02-28T09:07:34;3.15;;;1.48;;
18929;SDS011;43305;52.186;5.598;2023-02-28T09:10:01;3.20;;;1.15;;
18929;SDS011;43305;52.186;5.598;2023-02-28T09:12:27;4.15;;;1.40;;
18929;SDS011;43305;52.186;5.598;2023-02-28T09:14:59;4.10;;;1.48;;
18929;SDS011;43305;52.186;5.598;2023-02-28T09:17:27;3.10;;;1.02;;
18929;SDS011;43305;52.186;5.598;2023-02-28T09:19:54;1.30;;;0.70;;
18929;SDS011;43305;52.186;5.598;2023-02-28T09:22:21;3.10;;;1.30;;
18929;SDS011;43305;52.186;5.598;2023-02-28T09:24:48;2.63;;;1.00;;
18929;SDS011;43305;52.186;5.598;2023-02-28T09:27:15;2.72;;;1.00;;
18929;SDS011;43305;52.186;5.598;2023-02-28T09:29:42;3.05;;;0.85;;
18929;SDS011;43305;52.186;5.598;2023-02-28T09:32:09;5.10;;;0.98;;
18929;SDS011;43305;52.186;5.598;2023-02-28T09:34:37;3.50;;;1.00;;
18929;SDS011;43305;52.186;5.598;2023-02-28T09:37:04;1.27;;;0.80;;
18929;SDS011;43305;52.186;5.598;2023-02-28T09:39:31;3.25;;;1.00;;
18929;SDS011;43305;52.186;5.598;2023-02-28T09:41:58;3.70;;;0.93;;
18929;SDS011;43305;52.186;5.598;2023-02-28T09:44:26;1.25;;;0.70;;
18929;SDS011;43305;52.186;5.598;2023-02-28T09:46:58;1.10;;;0.73;;
18929;SDS011;43305;52.186;5.598;2023-02-28T09:49:30;2.45;;;0.90;;
18929;SDS011;43305;52.186;5.598;2023-02-28T09:52:06;9.77;;;1.98;;
18929;SDS011;43305;52.186;5.598;2023-02-28T09:54:36;3.05;;;1.13;;
18929;SDS011;43305;52.186;5.598;2023-02-28T09:57:06;1.92;;;1.10;;
18929;SDS011;43305;52.186;5.598;2023-02-28T09:59:38;2.97;;;1.00;;
18929;SDS011;43305;52.186;5.598;2023-02-28T10:02:13;2.78;;;1.10;;
18929;SDS011;43305;52.186;5.598;2023-02-28T10:05:08;1.65;;;1.00;;
18929;SDS011;43305;52.186;5.598;2023-02-28T10:07:44;3.15;;;1.02;;
18929;SDS011;43305;52.186;5.598;2023-02-28T10:10:21;3.90;;;1.13;;
18929;SDS011;43305;52.186;5.598;2023-02-28T10:12:51;2.38;;;1.20;;
18929;SDS011;43305;52.186;5.598;2023-02-28T10:15:20;2.38;;;1.30;;
18929;SDS011;43305;52.186;5.598;2023-02-28T10:17:49;2.83;;;1.30;;
18929;SDS011;43305;52.186;5.598;2023-02-28T10:20:21;4.13;;;1.20;;
18929;SDS011;43305;52.186;5.598;2023-02-28T10:22:57;1.77;;;0.90;;
18929;SDS011;43305;52.186;5.598;2023-02-28T10:25:32;2.78;;;1.23;;
18929;SDS011;43305;52.186;5.598;2023-02-28T10:28:01;2.85;;;1.10;;
18929;SDS011;43305;52.186;5.598;2023-02-28T10:30:36;4.25;;;0.95;;
18929;SDS011;43305;52.186;5.598;2023-02-28T10:33:08;3.05;;;0.93;;
18929;SDS011;43305;52.186;5.598;2023-02-28T10:35:44;1.63;;;0.88;;
18929;SDS011;43305;52.186;5.598;2023-02-28T10:38:20;2.35;;;0.90;;
18929;SDS011;43305;52.186;5.598;2023-02-28T10:40:49;2.28;;;1.00;;
18929;SDS011;43305;52.186;5.598;2023-02-28T10:43:18;1.67;;;0.93;;
18929;SDS011;43305;52.186;5.598;2023-02-28T10:45:53;1.95;;;0.90;;
18929;SDS011;43305;52.186;5.598;2023-02-28T10:48:29;2.67;;;0.90;;
18929;SDS011;43305;52.186;5.598;2023-02-28T10:50:59;3.45;;;1.10;;
18929;SDS011;43305;52.186;5.598;2023-02-28T10:53:31;2.63;;;0.82;;
18929;SDS011;43305;52.186;5.598;2023-02-28T10:56:04;2.45;;;1.08;;
18929;SDS011;43305;52.186;5.598;2023-02-28T10:58:49;1.80;;;0.90;;
18929;SDS011;43305;52.186;5.598;2023-02-28T11:01:18;1.60;;;0.80;;
18929;SDS011;43305;52.186;5.598;2023-02-28T11:03:47;3.88;;;1.00;;
18929;SDS011;43305;52.186;5.598;2023-02-28T11:06:16;1.95;;;0.93;;
18929;SDS011;43305;52.186;5.598;2023-02-28T11:08:48;1.70;;;0.90;;
18929;SDS011;43305;52.186;5.598;2023-02-28T11:11:18;1.30;;;0.80;;
18929;SDS011;43305;52.186;5.598;2023-02-28T11:13:46;1.55;;;0.90;;
18929;SDS011;43305;52.186;5.598;2023-02-28T11:16:16;1.83;;;1.00;;
18929;SDS011;43305;52.186;5.598;2023-02-28T11:18:46;2.45;;;1.13;;
18929;SDS011;43305;52.186;5.598;2023-02-28T11:21:16;2.92;;;1.30;;
18929;SDS011;43305;52.186;5.598;2023-02-28T11:23:52;3.17;;;1.00;;
18929;SDS011;43305;52.186;5.598;2023-02-28T11:26:36;2.25;;;1.10;;
18929;SDS011;43305;52.186;5.598;2023-02-28T11:29:12;2.03;;;1.10;;
18929;SDS011;43305;52.186;5.598;2023-02-28T11:31:55;1.05;;;0.80;;
18929;SDS011;43305;52.186;5.598;2023-02-28T11:34:29;1.80;;;1.10;;
18929;SDS011;43305;52.186;5.598;2023-02-28T11:36:57;1.65;;;0.90;;
18929;SDS011;43305;52.186;5.598;2023-02-28T11:39:26;1.50;;;1.00;;
18929;SDS011;43305;52.186;5.598;2023-02-28T11:41:58;2.22;;;0.90;;
18929;SDS011;43305;52.186;5.598;2023-02-28T11:44:55;3.08;;;1.00;;
18929;SDS011;43305;52.186;5.598;2023-02-28T11:47:32;2.25;;;1.20;;
18929;SDS011;43305;52.186;5.598;2023-02-28T11:50:07;3.05;;;1.25;;
18929;SDS011;43305;52.186;5.598;2023-02-28T11:52:48;2.03;;;0.90;;
18929;SDS011;43305;52.186;5.598;2023-02-28T11:55:23;2.50;;;1.02;;
18929;SDS011;43305;52.186;5.598;2023-02-28T11:58:07;2.45;;;0.93;;
18929;SDS011;43305;52.186;5.598;2023-02-28T12:00:50;1.60;;;0.88;;
18929;SDS011;43305;52.186;5.598;2023-02-28T12:03:27;2.20;;;1.00;;
18929;SDS011;43305;52.186;5.598;2023-02-28T12:06:06;5.35;;;1.30;;
18929;SDS011;43305;52.186;5.598;2023-02-28T12:08:49;5.05;;;1.13;;
18929;SDS011;43305;52.186;5.598;2023-02-28T12:11:33;7.82;;;1.20;;
18929;SDS011;43305;52.186;5.598;2023-02-28T12:14:14;2.45;;;0.90;;
18929;SDS011;43305;52.186;5.598;2023-02-28T12:17:16;1.80;;;1.00;;
18929;SDS011;43305;52.186;5.598;2023-02-28T12:19:57;1.98;;;1.20;;
18929;SDS011;43305;52.186;5.598;2023-02-28T12:22:34;5.57;;;1.30;;
18929;SDS011;43305;52.186;5.598;2023-02-28T12:25:24;2.60;;;1.20;;
18929;SDS011;43305;52.186;5.598;2023-02-28T12:28:10;2.40;;;1.25;;
18929;SDS011;43305;52.186;5.598;2023-02-28T12:30:45;1.75;;;1.13;;
18929;SDS011;43305;52.186;5.598;2023-02-28T12:33:17;13.98;;;1.58;;
18929;SDS011;43305;52.186;5.598;2023-02-28T12:35:49;7.93;;;1.50;;
18929;SDS011;43305;52.186;5.598;2023-02-28T12:38:21;4.38;;;1.30;;
18929;SDS011;43305;52.186;5.598;2023-02-28T12:40:51;10.43;;;1.20;;
18929;SDS011;43305;52.186;5.598;2023-02-28T12:43:22;6.35;;;1.50;;
18929;SDS011;43305;52.186;5.598;2023-02-28T12:45:55;2.83;;;1.10;;
18929;SDS011;43305;52.186;5.598;2023-02-28T12:48:26;1.83;;;1.13;;
18929;SDS011;43305;52.186;5.598;2023-02-28T12:50:57;3.50;;;1.30;;
18929;SDS011;43305;52.186;5.598;2023-02-28T12:53:26;3.78;;;1.40;;
18929;SDS011;43305;52.186;5.598;2023-02-28T12:56:00;1.73;;;1.15;;
18929;SDS011;43305;52.186;5.598;2023-02-28T12:58:37;1.77;;;1.20;;
18929;SDS011;43305;52.186;5.598;2023-02-28T13:01:13;4.18;;;1.30;;
18929;SDS011;43305;52.186;5.598;2023-02-28T13:04:08;2.53;;;1.30;;
18929;SDS011;43305;52.186;5.598;2023-02-28T13:07:08;2.13;;;1.05;;
18929;SDS011;43305;52.186;5.598;2023-02-28T13:09:53;2.47;;;1.40;;
18929;SDS011;43305;52.186;5.598;2023-02-28T13:12:22;2.20;;;1.20;;
18929;SDS011;43305;52.186;5.598;2023-02-28T13:14:51;3.00;;;1.15;;
18929;SDS011;43305;52.186;5.598;2023-02-28T13:17:30;3.72;;;1.38;;
18929;SDS011;43305;52.186;5.598;2023-02-28T13:19:59;3.63;;;1.85;;
18929;SDS011;43305;52.186;5.598;2023-02-28T13:22:37;2.85;;;1.50;;
18929;SDS011;43305;52.186;5.598;2023-02-28T13:28:08;4.13;;;1.50;;
18929;SDS011;43305;52.186;5.598;2023-02-28T13:33:29;4.90;;;1.48;;
18929;SDS011;43305;52.186;5.598;2023-02-28T13:36:01;4.43;;;1.58;;
18929;SDS011;43305;52.186;5.598;2023-02-28T13:38:36;4.07;;;1.48;;
18929;SDS011;43305;52.186;5.598;2023-02-28T13:44:08;3.28;;;1.33;;
18929;SDS011;43305;52.186;5.598;2023-02-28T13:49:46;3.28;;;1.23;;
18929;SDS011;43305;52.186;5.598;2023-02-28T13:52:15;2.25;;;1.70;;
18929;SDS011;43305;52.186;5.598;2023-02-28T13:57:44;2.30;;;1.30;;
18929;SDS011;43305;52.186;5.598;2023-02-28T14:00:42;2.40;;;1.40;;
18929;SDS011;43305;52.186;5.598;2023-02-28T14:03:27;2.55;;;1.33;;
18929;SDS011;43305;52.186;5.598;2023-02-28T14:06:08;2.88;;;1.38;;
18929;SDS011;43305;52.186;5.598;2023-02-28T14:08:57;2.08;;;1.30;;
18929;SDS011;43305;52.186;5.598;2023-02-28T14:11:29;2.22;;;1.25;;
18929;SDS011;43305;52.186;5.598;2023-02-28T14:13:58;21.45;;;8.25;;
18929;SDS011;43305;52.186;5.598;2023-02-28T14:16:26;13.13;;;5.18;;
18929;SDS011;43305;52.186;5.598;2023-02-28T14:19:03;3.45;;;1.60;;
18929;SDS011;43305;52.186;5.598;2023-02-28T14:21:39;2.47;;;1.50;;
18929;SDS011;43305;52.186;5.598;2023-02-28T14:24:24;3.17;;;1.30;;
18929;SDS011;43305;52.186;5.598;2023-02-28T14:27:14;2.35;;;1.33;;
18929;SDS011;43305;52.186;5.598;2023-02-28T14:33:22;2.95;;;1.50;;
18929;SDS011;43305;52.186;5.598;2023-02-28T14:36:00;2.20;;;1.20;;
18929;SDS011;43305;52.186;5.598;2023-02-28T14:38:34;2.78;;;1.58;;
18929;SDS011;43305;52.186;5.598;2023-02-28T14:41:12;2.97;;;1.20;;
18929;SDS011;43305;52.186;5.598;2023-02-28T14:43:53;1.75;;;1.13;;
18929;SDS011;43305;52.186;5.598;2023-02-28T14:46:22;2.63;;;1.27;;
18929;SDS011;43305;52.186;5.598;2023-02-28T14:48:53;1.98;;;1.30;;
18929;SDS011;43305;52.186;5.598;2023-02-28T14:51:22;1.63;;;1.00;;
18929;SDS011;43305;52.186;5.598;2023-02-28T14:53:50;2.70;;;1.30;;
18929;SDS011;43305;52.186;5.598;2023-02-28T14:56:23;3.28;;;1.38;;
18929;SDS011;43305;52.186;5.598;2023-02-28T14:58:52;1.92;;;1.08;;
18929;SDS011;43305;52.186;5.598;2023-02-28T15:01:21;6.95;;;3.53;;
18929;SDS011;43305;52.186;5.598;2023-02-28T15:03:56;1.92;;;1.13;;
18929;SDS011;43305;52.186;5.598;2023-02-28T15:06:27;5.88;;;1.50;;
18929;SDS011;43305;52.186;5.598;2023-02-28T15:09:08;8.10;;;1.70;;
18929;SDS011;43305;52.186;5.598;2023-02-28T15:11:36;3.97;;;1.40;;
18929;SDS011;43305;52.186;5.598;2023-02-28T15:14:05;3.25;;;1.50;;
18929;SDS011;43305;52.186;5.598;2023-02-28T15:16:32;4.45;;;1.20;;
18929;SDS011;43305;52.186;5.598;2023-02-28T15:19:05;3.88;;;1.40;;
18929;SDS011;43305;52.186;5.598;2023-02-28T15:21:39;3.03;;;1.60;;
18929;SDS011;43305;52.186;5.598;2023-02-28T15:24:11;5.20;;;1.48;;
18929;SDS011;43305;52.186;5.598;2023-02-28T15:26:42;2.22;;;1.33;;
18929;SDS011;43305;52.186;5.598;2023-02-28T15:29:12;2.70;;;1.27;;
18929;SDS011;43305;52.186;5.598;2023-02-28T15:31:43;3.13;;;1.60;;
18929;SDS011;43305;52.186;5.598;2023-02-28T15:34:17;5.10;;;2.60;;
18929;SDS011;43305;52.186;5.598;2023-02-28T15:36:47;2.92;;;1.40;;